createdAt,value
2022-11-26T00:00:34.906Z,5.87
2022-11-26T00:03:12.135Z,6.93
2022-11-26T00:06:08.661Z,5.53
2022-11-26T00:08:36.958Z,5.73
2022-11-26T00:11:11.171Z,6.30
2022-11-26T00:13:39.894Z,5.90
2022-11-26T00:16:13.951Z,5.93
2022-11-26T00:18:50.494Z,7.93
2022-11-26T00:21:34.030Z,8.20
2022-11-26T00:24:03.650Z,6.43
2022-11-26T00:26:35.164Z,5.73
2022-11-26T00:29:03.566Z,5.43
2022-11-26T00:31:32.225Z,5.23
2022-11-26T00:34:02.292Z,5.43
2022-11-26T00:36:33.865Z,5.30
2022-11-26T00:39:35.992Z,5.27
2022-11-26T00:42:08.501Z,4.83
2022-11-26T00:44:46.742Z,5.97
2022-11-26T00:47:14.045Z,7.67
2022-11-26T00:49:42.451Z,7.20
2022-11-26T00:52:40.838Z,7.00
2022-11-26T00:55:38.881Z,7.00
2022-11-26T00:58:07.889Z,7.43
2022-11-26T01:00:36.921Z,8.33
2022-11-26T01:03:06.455Z,8.20
2022-11-26T01:09:24.144Z,5.23
2022-11-26T01:12:02.275Z,5.30
2022-11-26T01:14:33.572Z,5.33
2022-11-26T01:17:03.062Z,5.20
2022-11-26T01:19:41.228Z,4.57
2022-11-26T01:22:24.290Z,4.77
2022-11-26T01:24:55.137Z,4.73
2022-11-26T01:27:23.272Z,5.17
2022-11-26T01:29:51.682Z,4.73
2022-11-26T01:32:19.871Z,4.87
2022-11-26T01:34:50.247Z,4.90
2022-11-26T01:37:20.545Z,5.07
2022-11-26T01:39:48.727Z,5.00
2022-11-26T01:42:38.023Z,4.63
2022-11-26T01:45:22.653Z,4.73
2022-11-26T01:47:51.928Z,4.43
2022-11-26T01:51:01.342Z,4.80
2022-11-26T01:53:59.113Z,4.37
2022-11-26T01:56:50.245Z,4.80
2022-11-26T01:59:35.128Z,4.37
2022-11-26T02:02:04.932Z,4.20
2022-11-26T02:05:00.461Z,4.60
2022-11-26T02:07:30.619Z,4.43
2022-11-26T02:10:03.763Z,4.27
2022-11-26T02:12:39.743Z,5.23
2022-11-26T02:15:11.552Z,4.50
2022-11-26T02:18:12.222Z,5.00
2022-11-26T02:21:12.249Z,5.70
2022-11-26T02:24:13.398Z,5.07
2022-11-26T02:27:07.567Z,5.37
2022-11-26T02:30:36.713Z,4.13
2022-11-26T02:51:01.875Z,5.70
2022-11-26T03:00:06.228Z,4.93
2022-11-26T03:02:41.512Z,4.93
2022-11-26T03:05:31.087Z,4.80
2022-11-26T03:08:02.253Z,5.17
2022-11-26T03:10:31.067Z,4.60
2022-11-26T03:12:58.707Z,4.67
2022-11-26T03:15:25.724Z,4.83
2022-11-26T03:17:52.829Z,4.83
2022-11-26T03:20:19.887Z,4.97
2022-11-26T03:22:47.627Z,5.03
2022-11-26T03:25:15.007Z,4.13
2022-11-26T03:27:42.758Z,4.30
2022-11-26T03:30:10.448Z,4.33
2022-11-26T03:35:21.523Z,4.20
2022-11-26T03:37:48.663Z,4.50
2022-11-26T03:40:18.208Z,4.30
2022-11-26T03:42:45.593Z,3.53
2022-11-26T03:45:15.311Z,3.57
2022-11-26T03:47:45.088Z,3.47
2022-11-26T03:50:12.489Z,3.50
2022-11-26T03:52:39.950Z,3.73
2022-11-26T03:55:09.767Z,3.90
2022-11-26T03:57:36.850Z,3.93
2022-11-26T04:00:06.823Z,3.90
2022-11-26T04:02:33.908Z,5.90
2022-11-26T04:05:00.989Z,4.00
2022-11-26T04:07:28.080Z,4.43
2022-11-26T04:09:55.918Z,4.83
2022-11-26T04:12:23.604Z,4.23
2022-11-26T04:14:50.668Z,5.07
2022-11-26T04:17:17.768Z,4.47
2022-11-26T04:19:45.468Z,4.57
2022-11-26T04:22:12.506Z,4.23
2022-11-26T04:24:39.786Z,4.40
2022-11-26T04:27:07.148Z,3.93
2022-11-26T04:29:35.116Z,4.10
2022-11-26T04:32:02.521Z,4.60
2022-11-26T04:34:30.031Z,4.23
2022-11-26T04:36:57.120Z,4.60
2022-11-26T04:39:24.140Z,4.20
2022-11-26T04:41:51.780Z,4.10
2022-11-26T04:44:19.109Z,4.67
2022-11-26T04:46:48.664Z,5.40
2022-11-26T04:49:16.646Z,7.17
2022-11-26T04:51:54.969Z,6.63
2022-11-26T04:54:22.086Z,6.20
2022-11-26T04:56:50.081Z,5.77
2022-11-26T04:59:17.163Z,6.27
2022-11-26T05:01:45.312Z,6.93
2022-11-26T05:04:12.357Z,6.07
2022-11-26T05:06:39.686Z,6.37
2022-11-26T05:09:07.384Z,6.30
2022-11-26T05:11:36.871Z,6.70
2022-11-26T05:14:04.481Z,6.90
2022-11-26T05:16:31.677Z,6.20
2022-11-26T05:19:04.265Z,6.37
2022-11-26T05:21:32.513Z,6.17
2022-11-26T05:24:00.685Z,6.30
2022-11-26T05:26:27.831Z,6.17
2022-11-26T05:28:54.914Z,6.10
2022-11-26T05:31:22.465Z,6.70
2022-11-26T05:33:49.633Z,6.83
2022-11-26T05:36:17.004Z,5.90
2022-11-26T05:38:44.063Z,6.27
2022-11-26T05:41:11.285Z,5.97
2022-11-26T05:43:38.607Z,5.57
2022-11-26T05:46:09.677Z,4.80
2022-11-26T05:48:36.887Z,4.70
2022-11-26T05:51:04.166Z,4.63
2022-11-26T05:53:34.459Z,6.60
2022-11-26T05:56:01.488Z,7.53
2022-11-26T05:58:29.864Z,7.67
2022-11-26T06:00:56.909Z,8.03
2022-11-26T06:03:26.030Z,9.10
2022-11-26T06:05:55.308Z,8.63
2022-11-26T06:08:22.382Z,5.23
2022-11-26T06:10:49.399Z,8.30
2022-11-26T06:13:16.966Z,10.33
2022-11-26T06:15:44.072Z,9.17
2022-11-26T06:18:11.309Z,11.33
2022-11-26T06:20:38.793Z,11.27
2022-11-26T06:23:06.400Z,10.83
2022-11-26T06:25:33.544Z,9.87
2022-11-26T06:28:00.632Z,9.47
2022-11-26T06:30:28.108Z,10.20
2022-11-26T06:32:55.795Z,9.53
2022-11-26T06:35:22.850Z,10.00
2022-11-26T06:37:52.313Z,7.83
2022-11-26T06:40:26.045Z,8.10
2022-11-26T06:42:54.520Z,7.50
2022-11-26T06:45:22.930Z,7.57
2022-11-26T06:47:51.645Z,7.80
2022-11-26T06:50:22.697Z,6.93
2022-11-26T06:52:54.512Z,7.40
2022-11-26T06:55:24.142Z,8.10
2022-11-26T06:57:52.448Z,7.00
2022-11-26T07:00:20.014Z,7.80
2022-11-26T07:02:47.145Z,7.63
2022-11-26T07:05:14.288Z,7.37
2022-11-26T07:07:41.457Z,8.10
2022-11-26T07:10:09.033Z,8.73
2022-11-26T07:12:36.088Z,9.50
2022-11-26T07:15:03.170Z,7.10
2022-11-26T07:17:30.301Z,8.40
2022-11-26T07:19:57.432Z,7.83
2022-11-26T07:22:26.847Z,6.90
2022-11-26T07:24:55.912Z,7.40
2022-11-26T07:27:25.045Z,6.90
2022-11-26T07:29:56.572Z,7.60
2022-11-26T07:32:23.642Z,7.00
2022-11-26T07:34:51.396Z,7.50
2022-11-26T07:37:19.405Z,7.83
2022-11-26T07:39:47.958Z,7.30
2022-11-26T07:42:15.207Z,7.27
2022-11-26T07:44:42.477Z,6.73
2022-11-26T07:47:09.645Z,6.90
2022-11-26T07:49:37.445Z,6.43
2022-11-26T07:52:04.811Z,6.97
2022-11-26T07:54:34.022Z,6.77
2022-11-26T07:57:01.157Z,6.30
2022-11-26T07:59:30.142Z,7.07
2022-11-26T08:02:00.534Z,5.97
2022-11-26T08:04:27.657Z,6.23
2022-11-26T08:06:54.725Z,6.93
2022-11-26T08:09:23.782Z,6.97
2022-11-26T08:11:50.909Z,8.80
2022-11-26T08:14:17.974Z,7.80
2022-11-26T08:16:45.133Z,7.60
2022-11-26T08:19:13.861Z,8.77
2022-11-26T08:21:41.725Z,9.13
2022-11-26T08:24:15.027Z,9.13
2022-11-26T08:26:44.552Z,9.80
2022-11-26T08:29:13.329Z,9.87
2022-11-26T08:31:46.038Z,8.97
2022-11-26T08:34:17.767Z,9.67
2022-11-26T08:36:46.321Z,9.57
2022-11-26T08:39:18.547Z,8.40
2022-11-26T08:41:50.629Z,6.93
2022-11-26T08:44:19.744Z,9.07
2022-11-26T08:46:48.567Z,7.40
2022-11-26T08:49:18.128Z,8.77
2022-11-26T08:51:45.463Z,9.33
2022-11-26T08:54:12.809Z,7.40
2022-11-26T08:56:50.583Z,8.03
2022-11-26T08:59:20.030Z,8.90
2022-11-26T09:01:47.118Z,9.33
2022-11-26T09:04:14.263Z,8.80
2022-11-26T09:06:41.667Z,6.73
2022-11-26T09:09:15.424Z,7.47
2022-11-26T09:11:46.504Z,7.67
2022-11-26T09:14:14.823Z,7.30
2022-11-26T09:16:42.138Z,7.87
2022-11-26T09:19:11.106Z,7.47
2022-11-26T09:21:38.393Z,7.57
2022-11-26T09:24:05.862Z,7.83
2022-11-26T09:26:34.142Z,6.13
2022-11-26T09:29:01.923Z,5.60
2022-11-26T09:31:29.415Z,8.60
2022-11-26T09:33:58.833Z,6.87
2022-11-26T09:36:26.004Z,7.27
2022-11-26T09:39:00.100Z,11.20
2022-11-26T09:41:51.766Z,11.33
2022-11-26T09:44:49.792Z,8.67
2022-11-26T09:47:48.208Z,9.33
2022-11-26T09:50:15.245Z,8.53
2022-11-26T09:52:47.752Z,9.93
2022-11-26T09:55:17.550Z,9.43
2022-11-26T09:58:06.328Z,9.70
2022-11-26T10:00:39.532Z,8.20
2022-11-26T10:03:20.302Z,6.87
2022-11-26T10:06:06.715Z,9.47
2022-11-26T10:08:48.965Z,7.73
2022-11-26T10:11:29.948Z,6.67
2022-11-26T10:14:33.002Z,7.80
2022-11-26T10:17:38.508Z,4.90
2022-11-26T10:20:14.803Z,5.50
2022-11-26T10:22:57.136Z,5.57
2022-11-26T10:25:29.461Z,6.83
2022-11-26T10:27:57.838Z,8.60
2022-11-26T10:30:28.108Z,7.97
2022-11-26T10:32:57.567Z,5.67
2022-11-26T10:35:29.221Z,7.83
2022-11-26T10:37:58.927Z,5.87
2022-11-26T10:40:32.832Z,7.23
2022-11-26T10:43:09.411Z,5.90
2022-11-26T10:45:41.037Z,6.87
2022-11-26T10:48:26.607Z,5.37
2022-11-26T10:51:02.672Z,5.70
2022-11-26T10:53:49.369Z,5.40
2022-11-26T10:56:32.166Z,5.20
2022-11-26T10:59:07.147Z,5.47
2022-11-26T11:01:40.728Z,5.43
2022-11-26T11:07:43.097Z,6.57
2022-11-26T11:10:10.182Z,6.30
2022-11-26T11:12:42.112Z,7.23
2022-11-26T11:15:21.746Z,5.77
2022-11-26T11:18:00.688Z,5.77
2022-11-26T11:31:31.782Z,7.53
2022-11-26T11:34:23.817Z,6.63
2022-11-26T11:37:23.357Z,5.83
2022-11-26T11:40:32.192Z,5.63
2022-11-26T11:43:08.147Z,5.20
2022-11-26T11:45:45.539Z,5.00
2022-11-26T11:49:04.783Z,4.73
2022-11-26T11:52:07.563Z,4.30
2022-11-26T11:54:57.783Z,4.00
2022-11-26T11:58:12.387Z,3.77
2022-11-26T12:01:19.782Z,3.70
2022-11-26T12:04:31.016Z,4.90
2022-11-26T12:08:00.982Z,7.23
2022-11-26T12:11:08.163Z,6.53
2022-11-26T12:14:13.703Z,7.13
2022-11-26T12:17:12.110Z,7.97
2022-11-26T12:20:09.848Z,6.97
2022-11-26T12:22:51.605Z,7.23
2022-11-26T12:25:36.591Z,7.47
2022-11-26T12:28:25.283Z,6.53
2022-11-26T12:31:36.605Z,7.10
2022-11-26T12:34:21.023Z,6.30
2022-11-26T12:37:09.248Z,6.80
2022-11-26T12:39:59.063Z,5.50
2022-11-26T12:42:45.871Z,5.00
2022-11-26T12:45:43.739Z,5.30
2022-11-26T12:48:32.732Z,6.23
2022-11-26T12:51:21.432Z,5.00
2022-11-26T12:54:15.867Z,6.90
2022-11-26T12:57:43.743Z,5.87
2022-11-26T13:00:45.773Z,6.47
2022-11-26T13:03:21.769Z,6.57
2022-11-26T13:06:21.410Z,7.40
2022-11-26T13:09:16.761Z,7.77
2022-11-26T13:12:22.442Z,8.17
2022-11-26T13:15:36.122Z,6.77
2022-11-26T13:18:09.183Z,7.87
2022-11-26T13:21:26.733Z,8.20
2022-11-26T13:24:18.646Z,8.13
2022-11-26T13:27:26.169Z,8.70
2022-11-26T13:30:36.388Z,8.57
2022-11-26T13:33:27.867Z,8.13
2022-11-26T13:36:34.484Z,7.80
2022-11-26T13:39:38.280Z,7.97
2022-11-26T13:43:01.793Z,8.30
2022-11-26T13:46:04.924Z,8.43
2022-11-26T13:52:26.971Z,7.10
2022-11-26T13:55:41.964Z,7.27
2022-11-26T13:58:50.645Z,6.93
2022-11-26T14:01:57.317Z,7.47
2022-11-26T14:04:36.203Z,7.07
2022-11-26T14:07:11.591Z,6.73
2022-11-26T14:10:08.926Z,5.07
2022-11-26T14:13:10.490Z,5.47
2022-11-26T14:15:53.487Z,5.60
2022-11-26T14:19:03.708Z,5.30
2022-11-26T14:21:39.928Z,4.83
2022-11-26T14:24:10.047Z,5.10
2022-11-26T14:26:44.789Z,5.83
2022-11-26T14:29:31.725Z,5.47
2022-11-26T14:32:22.758Z,5.70
2022-11-26T14:34:56.727Z,5.43
2022-11-26T14:37:35.226Z,5.73
2022-11-26T14:40:28.843Z,6.10
2022-11-26T14:43:25.598Z,6.43
2022-11-26T14:46:20.551Z,5.90
2022-11-26T14:49:10.882Z,5.37
2022-11-26T14:51:47.333Z,5.87
2022-11-26T14:54:34.107Z,6.27
2022-11-26T14:57:28.604Z,6.57
2022-11-26T15:00:28.127Z,7.10
2022-11-26T15:02:57.173Z,5.80
2022-11-26T15:05:33.347Z,5.90
2022-11-26T15:08:07.202Z,6.10
2022-11-26T15:11:05.245Z,6.50
2022-11-26T15:13:43.669Z,6.67
2022-11-26T15:16:42.900Z,5.80
2022-11-26T15:19:15.118Z,6.93
2022-11-26T15:22:07.629Z,11.93
2022-11-26T15:24:44.566Z,7.70
2022-11-26T15:27:41.848Z,8.47
2022-11-26T15:30:33.731Z,8.60
2022-11-26T15:33:15.825Z,8.50
2022-11-26T15:35:44.582Z,7.40
2022-11-26T15:38:21.624Z,7.53
2022-11-26T15:41:05.205Z,7.30
2022-11-26T15:43:48.278Z,7.33
2022-11-26T15:46:35.532Z,6.73
2022-11-26T15:49:38.237Z,6.93
2022-11-26T15:52:22.208Z,11.33
2022-11-26T15:55:18.246Z,9.67
2022-11-26T15:57:52.003Z,14.23
2022-11-26T16:00:43.628Z,11.77
2022-11-26T16:03:43.629Z,15.20
2022-11-26T16:06:45.733Z,14.00
2022-11-26T16:09:18.233Z,12.70
2022-11-26T16:12:03.869Z,10.73
2022-11-26T16:14:44.428Z,9.37
2022-11-26T16:17:18.723Z,7.70
2022-11-26T16:20:28.803Z,9.43
2022-11-26T16:23:11.646Z,10.03
2022-11-26T16:25:40.662Z,8.57
2022-11-26T16:28:17.822Z,9.90
2022-11-26T16:30:48.306Z,8.57
2022-11-26T16:33:16.650Z,10.67
2022-11-26T16:35:46.724Z,9.87
2022-11-26T16:38:31.159Z,9.10
2022-11-26T16:41:01.368Z,8.93
2022-11-26T16:43:31.778Z,9.77
2022-11-26T16:46:11.903Z,8.67
2022-11-26T16:48:43.142Z,10.20
2022-11-26T16:51:14.809Z,9.20
2022-11-26T16:53:44.450Z,8.23
2022-11-26T16:56:41.362Z,7.80
2022-11-26T16:59:20.187Z,7.10
2022-11-26T17:01:48.424Z,6.80
2022-11-26T17:04:26.902Z,7.37
2022-11-26T17:06:54.637Z,7.10
2022-11-26T17:09:30.558Z,9.37
2022-11-26T17:11:59.231Z,9.00
2022-11-26T17:14:27.909Z,9.10
2022-11-26T17:16:58.272Z,7.43
2022-11-26T17:19:26.899Z,6.33
2022-11-26T17:22:18.022Z,6.30
2022-11-26T17:24:48.301Z,5.93
2022-11-26T17:27:20.382Z,5.33
2022-11-26T17:29:52.269Z,5.13
2022-11-26T17:32:20.582Z,5.00
2022-11-26T17:34:48.511Z,4.87
2022-11-26T17:37:37.303Z,5.30
2022-11-26T17:40:15.913Z,5.07
2022-11-26T17:42:45.987Z,4.70
2022-11-26T17:45:16.012Z,4.50
2022-11-26T17:47:44.487Z,4.03
2022-11-26T17:50:25.303Z,4.20
2022-11-26T17:53:04.030Z,4.10
2022-11-26T17:55:40.698Z,8.43
2022-11-26T17:58:14.549Z,6.67
2022-11-26T18:00:43.207Z,4.20
2022-11-26T18:03:12.954Z,4.23
2022-11-26T18:05:51.813Z,4.73
2022-11-26T18:08:19.924Z,4.63
2022-11-26T18:10:48.444Z,4.33
2022-11-26T18:13:20.043Z,5.63
2022-11-26T18:15:47.049Z,6.40
2022-11-26T18:18:15.769Z,4.67
2022-11-26T18:20:47.182Z,4.23
2022-11-26T18:23:15.518Z,3.83
2022-11-26T18:25:46.966Z,3.70
2022-11-26T18:28:17.592Z,3.60
2022-11-26T18:30:46.180Z,3.67
2022-11-26T18:33:17.765Z,3.90
2022-11-26T18:35:48.059Z,4.37
2022-11-26T18:38:16.427Z,3.80
2022-11-26T18:40:44.810Z,4.00
2022-11-26T18:43:14.288Z,3.80
2022-11-26T18:45:51.560Z,3.60
2022-11-26T18:48:21.804Z,3.23
2022-11-26T18:51:00.934Z,3.73
2022-11-26T18:53:29.669Z,3.90
2022-11-26T18:56:00.046Z,4.10
2022-11-26T18:58:28.534Z,4.53
2022-11-26T19:00:59.324Z,4.83
2022-11-26T19:03:28.289Z,5.03
2022-11-26T19:06:03.824Z,5.07
2022-11-26T19:08:32.702Z,5.77
2022-11-26T19:11:07.223Z,6.07
2022-11-26T19:13:37.966Z,6.23
2022-11-26T19:16:16.787Z,8.57
2022-11-26T19:18:52.565Z,7.97
2022-11-26T19:21:37.793Z,8.63
2022-11-26T19:24:12.216Z,6.20
2022-11-26T19:26:43.702Z,6.87
2022-11-26T19:29:20.147Z,6.70
2022-11-26T19:31:48.369Z,6.63
2022-11-26T19:34:18.651Z,6.27
2022-11-26T19:36:49.645Z,6.20
2022-11-26T19:39:20.622Z,6.70
2022-11-26T19:41:49.224Z,6.57
2022-11-26T19:44:18.706Z,6.13
2022-11-26T19:46:49.030Z,5.80
2022-11-26T19:49:19.005Z,5.80
2022-11-26T19:51:49.879Z,6.87
2022-11-26T19:54:21.512Z,8.13
2022-11-26T19:56:49.769Z,9.13
2022-11-26T19:59:38.479Z,7.57
2022-11-26T20:02:10.371Z,4.73
2022-11-26T20:04:41.027Z,5.53
2022-11-26T20:07:17.934Z,5.93
2022-11-26T20:09:46.634Z,6.00
2022-11-26T20:12:14.468Z,5.60
2022-11-26T20:14:42.967Z,4.50
2022-11-26T20:17:21.228Z,4.20
2022-11-26T20:19:50.485Z,4.23
2022-11-26T20:22:20.098Z,4.70
2022-11-26T20:24:56.848Z,4.87
2022-11-26T20:27:23.888Z,4.87
2022-11-26T20:29:52.456Z,5.20
2022-11-26T20:32:22.588Z,5.20
2022-11-26T20:34:50.982Z,6.43
2022-11-26T20:37:21.184Z,6.67
2022-11-26T20:39:50.693Z,5.87
2022-11-26T20:42:19.462Z,6.83
2022-11-26T20:44:56.313Z,5.83
2022-11-26T20:47:34.687Z,5.33
2022-11-26T20:50:09.089Z,5.70
2022-11-26T20:52:37.678Z,4.87
2022-11-26T20:55:09.170Z,4.30
2022-11-26T20:57:37.570Z,3.50
2022-11-26T21:00:09.369Z,4.00
2022-11-26T21:02:37.534Z,3.60
2022-11-26T21:05:26.116Z,3.60
2022-11-26T21:07:54.422Z,3.40
2022-11-26T21:10:26.444Z,3.50
2022-11-26T21:13:03.054Z,4.40
2022-11-26T21:15:33.978Z,3.90
2022-11-26T21:18:07.500Z,3.20
2022-11-26T21:21:01.023Z,3.53
2022-11-26T21:23:37.464Z,3.33
2022-11-26T21:26:18.583Z,3.30
2022-11-26T21:28:49.767Z,3.40
2022-11-26T21:31:21.781Z,3.30
2022-11-26T21:33:58.838Z,3.07
2022-11-26T21:36:38.428Z,3.43
2022-11-26T21:39:09.059Z,3.17
2022-11-26T21:41:38.725Z,3.27
2022-11-26T21:44:09.930Z,3.27
2022-11-26T21:46:40.956Z,3.20
2022-11-26T21:49:10.064Z,3.70
2022-11-26T21:51:44.506Z,3.90
2022-11-26T21:54:14.192Z,3.97
2022-11-26T21:56:48.290Z,3.60
2022-11-26T21:59:18.907Z,4.10
2022-11-26T22:01:48.086Z,3.40
2022-11-26T22:04:18.700Z,3.77
2022-11-26T22:06:49.634Z,3.30
2022-11-26T22:09:19.526Z,3.60
2022-11-26T22:11:47.827Z,3.33
2022-11-26T22:14:21.844Z,3.73
2022-11-26T22:16:55.040Z,3.80
2022-11-26T22:19:25.428Z,4.10
2022-11-26T22:22:04.063Z,4.50
2022-11-26T22:24:32.319Z,4.30
2022-11-26T22:27:08.771Z,3.90
2022-11-26T22:29:37.960Z,3.47
2022-11-26T22:32:11.062Z,3.70
2022-11-26T22:34:39.904Z,4.03
2022-11-26T22:37:09.669Z,3.60
2022-11-26T22:39:38.365Z,3.73
2022-11-26T22:42:07.968Z,5.40
2022-11-26T22:44:36.522Z,18.47
2022-11-26T22:47:15.003Z,15.10
2022-11-26T22:49:45.165Z,9.33
2022-11-26T22:52:14.668Z,7.07
2022-11-26T22:54:45.943Z,5.93
2022-11-26T22:57:16.603Z,4.90
2022-11-26T22:59:55.449Z,5.30
2022-11-26T23:02:28.911Z,4.17
2022-11-26T23:04:57.450Z,3.83
2022-11-26T23:07:34.770Z,3.20
2022-11-26T23:10:07.193Z,2.80
2022-11-26T23:12:38.463Z,4.40
2022-11-26T23:15:13.949Z,4.97
2022-11-26T23:17:45.652Z,4.43
2022-11-26T23:20:22.047Z,4.53
2022-11-26T23:22:49.138Z,3.87
2022-11-26T23:25:18.543Z,4.10
2022-11-26T23:27:48.758Z,3.70
2022-11-26T23:30:27.347Z,2.90
2022-11-26T23:32:55.807Z,3.07
2022-11-26T23:35:26.258Z,3.03
2022-11-26T23:37:55.020Z,3.80
2022-11-26T23:40:24.685Z,5.93
2022-11-26T23:42:54.623Z,7.90
2022-11-26T23:45:31.462Z,5.60
2022-11-26T23:48:00.230Z,5.83
2022-11-26T23:50:29.646Z,6.00
2022-11-26T23:52:59.729Z,4.97
2022-11-26T23:55:30.326Z,5.33
2022-11-26T23:57:58.768Z,6.27
